Time;durP1;ratioP1;P1;durP2;ratioP2;P2;SDS_P1;SDS_P2;PMS_P1;PMS_P2;Temp;Humidity;BMP_temperature;BMP_pressure;BME280_temperature;BME280_humidity;BME280_pressure;Samples;Min_cycle;Max_cycle;Signal;HPM_P1;HPM_P2
2023/01/24 00:00:37;;;;;;;5.00;2.53;;;;;;;;;;5020832;28;20061;-71
2023/01/24 00:03:03;;;;;;;3.97;2.15;;;;;;;;;;5016959;28;20444;-72
2023/01/24 00:05:29;;;;;;;6.25;1.77;;;;;;;;;;5019745;28;20396;-71
2023/01/24 00:07:55;;;;;;;3.83;2.28;;;;;;;;;;5020107;28;20036;-72
2023/01/24 00:10:22;;;;;;;4.28;2.00;;;;;;;;;;5020684;28;20385;-72
2023/01/24 00:12:48;;;;;;;3.17;2.25;;;;;;;;;;5022139;28;20033;-71
2023/01/24 00:15:14;;;;;;;3.60;2.00;;;;;;;;;;5031888;28;20206;-72
2023/01/24 00:17:40;;;;;;;3.55;2.10;;;;;;;;;;5020769;28;20034;-71
2023/01/24 00:20:06;;;;;;;4.10;1.95;;;;;;;;;;5015654;28;20037;-72
2023/01/24 00:22:32;;;;;;;3.20;2.00;;;;;;;;;;5016723;28;20030;-71
2023/01/24 00:24:58;;;;;;;2.58;1.80;;;;;;;;;;5024731;28;20123;-72
2023/01/24 00:27:24;;;;;;;3.05;2.08;;;;;;;;;;5013727;28;20030;-71
2023/01/24 00:29:50;;;;;;;4.28;2.03;;;;;;;;;;5018631;28;20033;-72
2023/01/24 00:32:16;;;;;;;3.78;2.03;;;;;;;;;;5024909;28;20026;-71
2023/01/24 00:34:42;;;;;;;4.78;2.17;;;;;;;;;;5017744;28;20029;-71
2023/01/24 00:37:08;;;;;;;2.90;2.10;;;;;;;;;;5016429;28;20033;-71
2023/01/24 00:39:34;;;;;;;2.95;1.80;;;;;;;;;;5023792;28;20017;-72
2023/01/24 00:42:00;;;;;;;2.92;1.95;;;;;;;;;;5027678;28;20075;-72
2023/01/24 00:44:26;;;;;;;3.72;2.03;;;;;;;;;;5019540;28;20026;-72
2023/01/24 00:46:52;;;;;;;4.18;2.08;;;;;;;;;;5014753;28;20029;-71
2023/01/24 00:49:19;;;;;;;2.90;1.98;;;;;;;;;;5012075;28;20081;-71
2023/01/24 00:51:45;;;;;;;4.18;2.10;;;;;;;;;;5015588;28;20527;-71
2023/01/24 00:54:11;;;;;;;4.13;2.03;;;;;;;;;;5013312;28;20048;-72
2023/01/24 00:56:37;;;;;;;3.67;2.03;;;;;;;;;;5013618;28;20615;-72
2023/01/24 00:59:03;;;;;;;3.70;2.17;;;;;;;;;;5033952;28;20060;-72
2023/01/24 01:01:29;;;;;;;2.53;1.75;;;;;;;;;;5024173;28;20036;-71
2023/01/24 01:03:56;;;;;;;4.35;2.17;;;;;;;;;;5024515;28;20025;-72
2023/01/24 01:06:22;;;;;;;3.03;1.98;;;;;;;;;;5015661;28;20025;-71
2023/01/24 01:08:48;;;;;;;7.07;2.15;;;;;;;;;;5016707;28;20036;-71
2023/01/24 01:11:14;;;;;;;3.38;1.77;;;;;;;;;;5023118;28;20029;-72
2023/01/24 01:13:40;;;;;;;3.30;1.95;;;;;;;;;;5010932;28;20038;-71
2023/01/24 01:16:07;;;;;;;3.92;2.00;;;;;;;;;;5026304;28;20033;-71
2023/01/24 01:18:33;;;;;;;3.00;2.00;;;;;;;;;;5015378;28;20036;-71
2023/01/24 01:20:59;;;;;;;4.47;2.72;;;;;;;;;;5015089;28;20034;-72
2023/01/24 01:23:26;;;;;;;2.47;1.80;;;;;;;;;;5014556;28;20033;-72
2023/01/24 01:25:52;;;;;;;2.10;1.90;;;;;;;;;;5017578;28;20500;-71
2023/01/24 01:28:18;;;;;;;2.47;1.90;;;;;;;;;;5020768;28;20449;-71
2023/01/24 01:30:44;;;;;;;2.78;2.08;;;;;;;;;;5020254;28;20026;-71
2023/01/24 01:33:10;;;;;;;3.17;2.00;;;;;;;;;;5014585;28;20026;-71
2023/01/24 01:35:36;;;;;;;2.83;1.75;;;;;;;;;;5011547;28;20509;-72
2023/01/24 01:38:01;;;;;;;1.75;1.60;;;;;;;;;;5022123;28;20393;-72
2023/01/24 01:40:27;;;;;;;2.95;2.30;;;;;;;;;;5016200;28;20029;-71
2023/01/24 01:42:55;;;;;;;4.10;2.00;;;;;;;;;;5019071;28;20049;-71
2023/01/24 01:45:31;;;;;;;2.47;1.60;;;;;;;;;;5017411;28;20075;-71
2023/01/24 01:47:57;;;;;;;3.47;1.90;;;;;;;;;;5018686;28;20037;-72
2023/01/24 01:50:28;;;;;;;2.30;1.55;;;;;;;;;;5010892;28;20022;-72
2023/01/24 01:52:54;;;;;;;3.80;2.17;;;;;;;;;;5019306;28;20029;-71
2023/01/24 01:55:22;;;;;;;3.65;1.80;;;;;;;;;;5015295;28;20026;-71
2023/01/24 01:57:49;;;;;;;4.47;2.20;;;;;;;;;;5018613;28;20487;-71
2023/01/24 02:00:24;;;;;;;3.08;1.92;;;;;;;;;;5026643;28;20049;-71
2023/01/24 02:02:51;;;;;;;4.05;1.90;;;;;;;;;;5009973;28;20117;-71
2023/01/24 02:05:20;;;;;;;2.80;1.92;;;;;;;;;;5018120;28;20030;-71
2023/01/24 02:07:52;;;;;;;2.92;1.70;;;;;;;;;;5022595;28;21636;-71
2023/01/24 02:10:20;;;;;;;2.60;1.38;;;;;;;;;;5009797;28;20604;-71
2023/01/24 02:12:47;;;;;;;2.15;1.60;;;;;;;;;;5008079;28;20477;-71
2023/01/24 02:18:03;;;;;;;4.18;2.00;;;;;;;;;;5019886;28;20125;-71
2023/01/24 02:20:38;;;;;;;3.15;1.75;;;;;;;;;;5010255;28;20036;-71
2023/01/24 02:23:07;;;;;;;4.45;1.98;;;;;;;;;;5011407;28;20037;-71
2023/01/24 02:25:35;;;;;;;2.78;1.75;;;;;;;;;;5021535;28;20029;-72
2023/01/24 02:28:02;;;;;;;2.35;1.75;;;;;;;;;;5012835;28;20033;-71
2023/01/24 02:30:28;;;;;;;3.45;1.90;;;;;;;;;;5022563;28;20034;-72
2023/01/24 02:32:54;;;;;;;3.72;1.80;;;;;;;;;;5015455;28;20076;-71
2023/01/24 02:35:28;;;;;;;3.85;1.83;;;;;;;;;;5021173;28;20131;-72
2023/01/24 02:37:54;;;;;;;2.63;1.58;;;;;;;;;;5018914;28;20040;-72
2023/01/24 02:40:20;;;;;;;2.90;1.73;;;;;;;;;;5014500;28;20075;-71
2023/01/24 02:42:47;;;;;;;3.70;1.90;;;;;;;;;;5015136;28;20044;-71
2023/01/24 02:45:21;;;;;;;2.83;1.63;;;;;;;;;;5011101;28;20104;-71
2023/01/24 02:47:49;;;;;;;3.00;2.00;;;;;;;;;;5023121;28;20090;-70
2023/01/24 02:50:20;;;;;;;2.20;1.55;;;;;;;;;;5023448;28;20036;-71
2023/01/24 02:55:30;;;;;;;3.05;1.70;;;;;;;;;;5016981;28;20128;-70
2023/01/24 02:58:06;;;;;;;2.05;1.70;;;;;;;;;;5023998;28;20025;-70
2023/01/24 03:00:42;;;;;;;3.35;1.80;;;;;;;;;;5023806;28;20494;-70
2023/01/24 03:03:09;;;;;;;2.05;1.70;;;;;;;;;;5019713;28;20044;-70
2023/01/24 03:08:20;;;;;;;1.92;1.42;;;;;;;;;;5008469;28;20130;-72
2023/01/24 03:10:46;;;;;;;3.47;1.80;;;;;;;;;;5023138;28;20087;-71
2023/01/24 03:35:11;;;;;;;3.13;1.88;;;;;;;;;;5013097;28;20512;-71
2023/01/24 03:40:22;;;;;;;3.00;1.70;;;;;;;;;;5010384;28;20033;-71
2023/01/24 03:42:48;;;;;;;2.15;1.85;;;;;;;;;;5011135;28;20029;-71
2023/01/24 03:45:25;;;;;;;2.45;1.58;;;;;;;;;;5013600;28;20033;-71
2023/01/24 03:47:55;;;;;;;3.13;1.80;;;;;;;;;;5018625;28;20041;-71
2023/01/24 03:53:13;;;;;;;2.15;1.48;;;;;;;;;;5020136;28;20028;-71
2023/01/24 03:55:39;;;;;;;3.67;1.67;;;;;;;;;;5017884;28;20026;-71
2023/01/24 03:58:06;;;;;;;1.85;1.42;;;;;;;;;;5021478;28;20508;-71
2023/01/24 04:00:32;;;;;;;1.92;1.45;;;;;;;;;;5018410;28;20057;-71
2023/01/24 04:02:58;;;;;;;2.45;1.60;;;;;;;;;;5018509;28;20588;-71
2023/01/24 04:05:24;;;;;;;2.08;1.70;;;;;;;;;;5024036;28;20040;-71
2023/01/24 04:07:50;;;;;;;3.47;1.80;;;;;;;;;;5018120;28;20030;-70
2023/01/24 04:10:17;;;;;;;4.03;1.40;;;;;;;;;;5021460;28;20224;-71
2023/01/24 04:12:43;;;;;;;1.30;1.15;;;;;;;;;;5030601;28;20030;-71
2023/01/24 04:15:14;;;;;;;3.35;1.85;;;;;;;;;;5032776;28;20499;-71
2023/01/24 04:17:40;;;;;;;3.22;1.60;;;;;;;;;;5015195;28;20050;-71
2023/01/24 04:20:06;;;;;;;1.92;1.27;;;;;;;;;;5015689;28;20017;-70
2023/01/24 04:22:32;;;;;;;3.58;1.17;;;;;;;;;;5019212;28;20037;-71
2023/01/24 04:24:58;;;;;;;2.78;1.60;;;;;;;;;;5024952;28;20026;-71
2023/01/24 04:27:24;;;;;;;2.13;1.48;;;;;;;;;;5025477;28;20496;-71
2023/01/24 04:29:50;;;;;;;3.00;1.67;;;;;;;;;;5029057;28;20420;-70
2023/01/24 04:32:16;;;;;;;1.65;1.40;;;;;;;;;;5024753;28;20022;-70
2023/01/24 04:34:42;;;;;;;2.75;1.90;;;;;;;;;;5024612;28;20516;-71
2023/01/24 04:37:08;;;;;;;2.15;1.30;;;;;;;;;;5016771;28;20383;-70
2023/01/24 04:39:34;;;;;;;1.98;1.15;;;;;;;;;;5010644;28;20364;-71
2023/01/24 04:42:00;;;;;;;1.92;1.30;;;;;;;;;;5022399;28;20034;-71
2023/01/24 04:44:26;;;;;;;3.60;1.83;;;;;;;;;;5016535;28;20029;-71
2023/01/24 04:46:52;;;;;;;2.28;1.48;;;;;;;;;;5014060;28;20041;-71
2023/01/24 04:49:17;;;;;;;3.92;1.50;;;;;;;;;;5022934;28;20118;-71
2023/01/24 04:51:44;;;;;;;1.63;1.40;;;;;;;;;;5019833;28;20068;-72
2023/01/24 04:54:12;;;;;;;1.98;1.30;;;;;;;;;;5029984;28;20036;-71
2023/01/24 04:56:38;;;;;;;1.38;1.15;;;;;;;;;;5024560;28;20084;-71
2023/01/24 04:59:05;;;;;;;2.88;1.50;;;;;;;;;;5021678;28;20037;-71
2023/01/24 05:01:31;;;;;;;1.75;1.45;;;;;;;;;;5010862;28;20121;-71
2023/01/24 05:03:59;;;;;;;1.95;1.55;;;;;;;;;;5013650;28;20125;-71
2023/01/24 05:06:26;;;;;;;1.98;1.50;;;;;;;;;;5017148;28;20423;-71
2023/01/24 05:08:52;;;;;;;2.33;1.58;;;;;;;;;;5015545;28;20379;-71
2023/01/24 05:11:18;;;;;;;2.05;1.35;;;;;;;;;;5012082;28;20026;-70
2023/01/24 05:13:44;;;;;;;1.92;1.38;;;;;;;;;;5014334;28;20030;-71
2023/01/24 05:16:10;;;;;;;2.35;1.45;;;;;;;;;;5026191;28;20033;-71
2023/01/24 05:18:36;;;;;;;1.48;1.38;;;;;;;;;;5022044;28;20040;-70
2023/01/24 05:21:06;;;;;;;1.67;1.33;;;;;;;;;;5028023;28;20186;-71
2023/01/24 05:23:32;;;;;;;3.03;1.67;;;;;;;;;;5016456;28;20112;-71
2023/01/24 05:25:59;;;;;;;2.40;1.58;;;;;;;;;;5017894;28;20037;-71
2023/01/24 05:28:25;;;;;;;2.40;1.52;;;;;;;;;;5025660;28;20029;-71
2023/01/24 05:30:51;;;;;;;2.65;1.30;;;;;;;;;;5020612;28;20378;-71
2023/01/24 05:33:16;;;;;;;2.42;1.40;;;;;;;;;;5029859;28;20032;-71
2023/01/24 05:35:44;;;;;;;2.97;1.80;;;;;;;;;;5022809;28;20056;-74
2023/01/24 05:38:10;;;;;;;1.92;1.33;;;;;;;;;;5015894;28;20056;-71
2023/01/24 05:40:36;;;;;;;1.70;1.45;;;;;;;;;;5011492;28;20049;-71
2023/01/24 05:43:02;;;;;;;3.08;1.60;;;;;;;;;;5018735;28;20032;-79
2023/01/24 05:45:28;;;;;;;1.75;1.25;;;;;;;;;;5023092;28;20071;-71
2023/01/24 05:47:55;;;;;;;2.13;1.42;;;;;;;;;;5015415;28;20039;-71
2023/01/24 05:50:21;;;;;;;1.90;1.10;;;;;;;;;;5032293;28;20469;-71
2023/01/24 05:52:47;;;;;;;2.53;1.67;;;;;;;;;;5020226;28;20108;-71
2023/01/24 05:55:13;;;;;;;3.35;1.65;;;;;;;;;;5027669;28;20387;-71
2023/01/24 05:57:39;;;;;;;1.92;1.40;;;;;;;;;;5027017;28;20091;-70
2023/01/24 06:00:05;;;;;;;3.63;1.67;;;;;;;;;;5027114;28;20056;-71
2023/01/24 06:02:31;;;;;;;2.10;1.67;;;;;;;;;;5026822;28;20079;-71
2023/01/24 06:04:57;;;;;;;2.22;1.40;;;;;;;;;;5027839;28;20037;-70
2023/01/24 06:07:23;;;;;;;2.40;1.20;;;;;;;;;;5023617;28;20062;-70
2023/01/24 06:09:49;;;;;;;2.47;1.30;;;;;;;;;;5022393;28;20037;-70
2023/01/24 06:12:15;;;;;;;2.17;1.30;;;;;;;;;;5019670;28;20033;-70
2023/01/24 06:14:41;;;;;;;2.15;1.65;;;;;;;;;;5029725;28;20033;-71
2023/01/24 06:17:07;;;;;;;2.50;1.50;;;;;;;;;;5026404;28;20469;-72
2023/01/24 06:19:33;;;;;;;3.10;1.50;;;;;;;;;;5026584;28;20025;-73
2023/01/24 06:22:22;;;;;;;2.65;1.40;;;;;;;;;;5019331;28;20080;-72
2023/01/24 06:24:48;;;;;;;2.05;1.55;;;;;;;;;;5014750;28;20034;-70
2023/01/24 06:27:14;;;;;;;3.45;1.38;;;;;;;;;;5013118;28;20048;-70
2023/01/24 06:29:40;;;;;;;1.60;1.35;;;;;;;;;;5020534;28;20061;-71
2023/01/24 06:32:19;;;;;;;2.33;1.45;;;;;;;;;;5026772;28;20025;-70
2023/01/24 06:35:05;;;;;;;2.88;1.65;;;;;;;;;;5026114;28;20026;-70
2023/01/24 06:37:41;;;;;;;1.95;1.58;;;;;;;;;;5027117;28;20029;-70
2023/01/24 06:40:09;;;;;;;1.33;1.20;;;;;;;;;;5026061;28;20029;-71
2023/01/24 06:42:35;;;;;;;1.25;1.15;;;;;;;;;;5025952;28;20029;-70
2023/01/24 06:45:01;;;;;;;2.10;1.48;;;;;;;;;;5024227;28;20033;-70
2023/01/24 06:47:27;;;;;;;1.73;1.50;;;;;;;;;;5020967;28;20025;-69
2023/01/24 06:49:53;;;;;;;2.42;1.73;;;;;;;;;;5046018;28;20032;-70
2023/01/24 06:52:19;;;;;;;2.45;1.48;;;;;;;;;;5034290;28;20071;-70
2023/01/24 06:54:45;;;;;;;3.78;1.73;;;;;;;;;;5026103;28;20030;-70
2023/01/24 06:57:11;;;;;;;2.22;1.23;;;;;;;;;;5025140;28;20025;-71
2023/01/24 06:59:37;;;;;;;2.63;1.77;;;;;;;;;;5024464;28;20064;-69
2023/01/24 07:02:03;;;;;;;3.28;1.65;;;;;;;;;;5025573;28;20033;-70
2023/01/24 07:04:29;;;;;;;2.58;1.58;;;;;;;;;;5029237;28;20473;-71
2023/01/24 07:06:55;;;;;;;2.30;1.90;;;;;;;;;;5043795;28;20029;-68
2023/01/24 07:09:22;;;;;;;3.08;1.75;;;;;;;;;;5025725;28;20040;-70
2023/01/24 07:11:52;;;;;;;3.20;2.08;;;;;;;;;;5022616;28;20055;-71
2023/01/24 07:14:18;;;;;;;2.22;1.67;;;;;;;;;;5022909;28;20040;-71
2023/01/24 07:16:44;;;;;;;2.55;1.80;;;;;;;;;;5030056;28;20018;-71
2023/01/24 07:19:21;;;;;;;3.17;1.92;;;;;;;;;;5031487;28;20362;-71
2023/01/24 07:21:47;;;;;;;1.80;1.60;;;;;;;;;;5027130;28;20026;-69
2023/01/24 07:24:15;;;;;;;2.42;1.80;;;;;;;;;;5012901;28;20421;-69
2023/01/24 07:26:42;;;;;;;2.47;1.75;;;;;;;;;;5014242;28;20401;-69
2023/01/24 07:29:08;;;;;;;3.45;1.80;;;;;;;;;;5024873;28;20018;-69
2023/01/24 07:31:34;;;;;;;3.30;1.85;;;;;;;;;;5026963;28;20029;-69
2023/01/24 07:33:59;;;;;;;3.30;2.08;;;;;;;;;;5021104;28;20018;-69
2023/01/24 07:36:26;;;;;;;3.08;1.80;;;;;;;;;;5018724;28;20033;-69
2023/01/24 07:38:56;;;;;;;3.38;1.70;;;;;;;;;;5029051;28;20151;-68
2023/01/24 07:41:22;;;;;;;5.30;1.95;;;;;;;;;;5027672;28;20729;-69
2023/01/24 07:43:48;;;;;;;1.92;1.40;;;;;;;;;;5012772;28;20026;-69
2023/01/24 07:46:14;;;;;;;4.50;1.90;;;;;;;;;;5017630;28;20041;-70
2023/01/24 07:48:40;;;;;;;2.65;1.48;;;;;;;;;;5028834;28;20025;-69
2023/01/24 07:51:06;;;;;;;2.80;1.85;;;;;;;;;;5028482;28;20104;-69
2023/01/24 07:53:32;;;;;;;3.88;1.92;;;;;;;;;;5028817;28;20139;-70
2023/01/24 07:56:01;;;;;;;2.20;1.67;;;;;;;;;;5025620;28;20036;-69
2023/01/24 07:58:27;;;;;;;3.67;1.73;;;;;;;;;;5028959;28;20104;-69
2023/01/24 08:00:53;;;;;;;3.00;1.80;;;;;;;;;;5029424;28;20069;-69
2023/01/24 08:03:19;;;;;;;3.03;1.30;;;;;;;;;;5022416;28;20021;-69
2023/01/24 08:05:45;;;;;;;2.67;1.70;;;;;;;;;;5022445;28;20123;-71
2023/01/24 08:08:11;;;;;;;4.10;2.10;;;;;;;;;;5022788;28;20481;-70
2023/01/24 08:10:37;;;;;;;3.28;2.08;;;;;;;;;;5022824;28;20030;-70
2023/01/24 08:13:03;;;;;;;3.67;1.70;;;;;;;;;;5027276;28;20025;-69
2023/01/24 08:15:29;;;;;;;2.75;1.73;;;;;;;;;;5032245;28;20028;-70
2023/01/24 08:17:55;;;;;;;3.67;1.80;;;;;;;;;;5028421;28;20090;-69
2023/01/24 08:20:21;;;;;;;2.88;1.90;;;;;;;;;;5010687;28;20496;-71
2023/01/24 08:22:47;;;;;;;2.10;1.77;;;;;;;;;;5024075;28;20136;-70
2023/01/24 08:25:13;;;;;;;3.92;1.80;;;;;;;;;;5014484;28;20052;-70
2023/01/24 08:27:42;;;;;;;2.53;1.55;;;;;;;;;;5022047;28;20478;-71
2023/01/24 08:30:10;;;;;;;3.40;2.08;;;;;;;;;;5019039;28;20065;-70
2023/01/24 08:32:36;;;;;;;2.95;1.73;;;;;;;;;;5024064;28;20024;-71
2023/01/24 08:35:02;;;;;;;4.05;2.10;;;;;;;;;;5016199;28;20406;-71
2023/01/24 08:37:28;;;;;;;3.65;1.77;;;;;;;;;;5029351;28;20587;-71
2023/01/24 08:39:56;;;;;;;3.33;2.00;;;;;;;;;;5017272;28;20505;-71
2023/01/24 08:42:22;;;;;;;3.38;1.88;;;;;;;;;;5012318;28;20034;-76
2023/01/24 08:44:48;;;;;;;2.40;1.80;;;;;;;;;;5020006;28;20601;-75
2023/01/24 08:47:14;;;;;;;3.72;2.03;;;;;;;;;;5028044;28;20037;-75
2023/01/24 08:49:40;;;;;;;4.50;2.22;;;;;;;;;;5028935;28;20029;-74
2023/01/24 08:52:06;;;;;;;3.55;1.95;;;;;;;;;;5013973;28;20124;-74
2023/01/24 08:54:33;;;;;;;4.72;2.30;;;;;;;;;;5029124;28;20017;-75
2023/01/24 08:56:59;;;;;;;5.32;2.28;;;;;;;;;;5022243;28;20025;-71
2023/01/24 08:59:25;;;;;;;3.95;2.40;;;;;;;;;;5017788;28;20513;-70
2023/01/24 09:01:51;;;;;;;6.97;2.65;;;;;;;;;;5028117;28;20041;-70
2023/01/24 09:04:17;;;;;;;8.43;3.15;;;;;;;;;;5027773;28;20030;-70
2023/01/24 09:06:43;;;;;;;5.78;2.80;;;;;;;;;;5028547;28;20060;-71
2023/01/24 09:09:09;;;;;;;7.13;2.83;;;;;;;;;;5019923;28;20091;-69
2023/01/24 09:11:35;;;;;;;7.57;3.22;;;;;;;;;;5021914;28;20772;-70
2023/01/24 09:14:01;;;;;;;5.13;2.85;;;;;;;;;;5025872;28;20041;-70
2023/01/24 09:16:27;;;;;;;7.57;3.00;;;;;;;;;;5033780;28;20025;-72
2023/01/24 09:18:54;;;;;;;10.85;2.75;;;;;;;;;;5024299;28;20397;-72
2023/01/24 09:21:20;;;;;;;7.05;2.80;;;;;;;;;;5017842;28;20491;-71
2023/01/24 09:23:46;;;;;;;9.55;3.72;;;;;;;;;;5013316;28;20040;-72
2023/01/24 09:26:12;;;;;;;8.18;3.00;;;;;;;;;;5010462;28;20204;-72
2023/01/24 09:28:39;;;;;;;6.30;2.80;;;;;;;;;;5011204;28;20490;-73
2023/01/24 09:31:07;;;;;;;8.55;3.33;;;;;;;;;;5016130;28;20098;-72
2023/01/24 09:33:33;;;;;;;8.60;2.75;;;;;;;;;;5009284;28;20025;-72
2023/01/24 09:36:01;;;;;;;10.02;3.17;;;;;;;;;;5014813;28;20056;-72
2023/01/24 09:38:28;;;;;;;8.57;3.13;;;;;;;;;;5026019;28;20022;-73
2023/01/24 09:41:06;;;;;;;6.13;2.88;;;;;;;;;;5020797;28;20036;-72
2023/01/24 09:43:51;;;;;;;6.03;2.67;;;;;;;;;;5018184;28;20493;-72
2023/01/24 09:46:36;;;;;;;7.95;3.03;;;;;;;;;;5018890;28;20017;-72
2023/01/24 09:49:13;;;;;;;9.13;2.67;;;;;;;;;;5009387;28;20080;-71
2023/01/24 09:51:43;;;;;;;6.47;2.55;;;;;;;;;;5014176;28;20022;-72
2023/01/24 09:54:13;;;;;;;6.50;2.95;;;;;;;;;;5009312;28;20500;-72
2023/01/24 09:56:42;;;;;;;6.83;3.37;;;;;;;;;;5019655;28;20041;-72
2023/01/24 09:59:21;;;;;;;7.22;2.47;;;;;;;;;;5006220;28;20038;-72
2023/01/24 10:01:48;;;;;;;7.57;3.28;;;;;;;;;;5030980;28;20426;-72
2023/01/24 10:04:15;;;;;;;7.03;2.67;;;;;;;;;;5009530;28;20026;-73
2023/01/24 10:06:47;;;;;;;6.97;2.97;;;;;;;;;;5001658;28;20029;-72
2023/01/24 10:09:25;;;;;;;6.35;3.10;;;;;;;;;;5018829;28;20026;-73
2023/01/24 10:12:10;;;;;;;8.43;2.78;;;;;;;;;;5007843;28;20029;-72
2023/01/24 10:14:39;;;;;;;8.07;3.03;;;;;;;;;;5023951;28;20025;-72
2023/01/24 10:17:05;;;;;;;10.00;3.45;;;;;;;;;;5013277;28;20021;-72
2023/01/24 10:19:39;;;;;;;11.30;3.28;;;;;;;;;;5010607;28;20426;-72
2023/01/24 10:22:23;;;;;;;11.45;3.28;;;;;;;;;;5017533;28;20040;-73
2023/01/24 10:24:57;;;;;;;11.15;3.40;;;;;;;;;;5007525;28;20256;-72
2023/01/24 10:27:31;;;;;;;8.80;3.40;;;;;;;;;;5005344;28;20049;-72
2023/01/24 10:30:02;;;;;;;9.25;3.30;;;;;;;;;;5010326;28;20022;-73
2023/01/24 10:32:31;;;;;;;11.68;4.05;;;;;;;;;;5012906;28;20553;-73
2023/01/24 10:34:59;;;;;;;10.73;3.47;;;;;;;;;;5010909;28;20030;-74
2023/01/24 10:37:28;;;;;;;5.20;2.95;;;;;;;;;;5009076;28;20037;-74
2023/01/24 10:39:54;;;;;;;9.02;3.58;;;;;;;;;;5012264;28;20480;-75
2023/01/24 10:42:25;;;;;;;7.75;3.55;;;;;;;;;;5020548;28;20029;-74
2023/01/24 10:44:52;;;;;;;9.18;3.40;;;;;;;;;;5013102;28;20495;-74
2023/01/24 10:47:36;;;;;;;8.35;3.30;;;;;;;;;;5020320;28;20041;-74
2023/01/24 10:50:05;;;;;;;9.77;3.80;;;;;;;;;;5012335;28;20041;-74
2023/01/24 10:52:33;;;;;;;10.07;3.55;;;;;;;;;;5022004;28;20034;-74
2023/01/24 10:55:01;;;;;;;13.40;3.33;;;;;;;;;;5025361;28;20021;-73
2023/01/24 10:57:35;;;;;;;9.23;4.13;;;;;;;;;;5025426;28;20018;-73
2023/01/24 11:00:05;;;;;;;8.50;3.97;;;;;;;;;;5012687;28;20390;-73
2023/01/24 11:02:34;;;;;;;12.88;4.28;;;;;;;;;;5024544;28;20022;-74
2023/01/24 11:05:04;;;;;;;9.77;3.42;;;;;;;;;;5025434;28;20029;-73
2023/01/24 11:07:32;;;;;;;10.80;3.75;;;;;;;;;;5021455;28;20517;-73
2023/01/24 11:09:59;;;;;;;8.73;3.90;;;;;;;;;;5023362;28;20165;-74
2023/01/24 11:12:25;;;;;;;10.82;3.78;;;;;;;;;;5025491;28;20021;-74
2023/01/24 11:14:51;;;;;;;9.85;4.55;;;;;;;;;;5032714;28;20495;-73
2023/01/24 11:17:32;;;;;;;8.00;3.17;;;;;;;;;;5024912;28;20025;-73
2023/01/24 11:19:59;;;;;;;13.45;3.95;;;;;;;;;;5024771;28;20428;-73
2023/01/24 11:22:26;;;;;;;8.75;3.88;;;;;;;;;;5023595;28;20037;-73
2023/01/24 11:24:57;;;;;;;7.97;3.75;;;;;;;;;;5011013;28;20080;-73
2023/01/24 11:27:23;;;;;;;14.82;4.03;;;;;;;;;;5025464;28;20044;-74
2023/01/24 11:30:07;;;;;;;11.35;4.28;;;;;;;;;;5025020;28;20026;-73
2023/01/24 11:32:35;;;;;;;11.82;3.40;;;;;;;;;;5025201;28;20056;-74
2023/01/24 11:35:25;;;;;;;9.25;3.97;;;;;;;;;;5017938;28;20516;-73
2023/01/24 11:37:54;;;;;;;10.32;3.65;;;;;;;;;;5010156;28;20029;-73
2023/01/24 11:40:25;;;;;;;9.05;3.50;;;;;;;;;;5025250;28;20083;-73
2023/01/24 11:43:04;;;;;;;7.82;4.00;;;;;;;;;;5019781;28;20029;-73
2023/01/24 11:45:53;;;;;;;9.55;4.07;;;;;;;;;;5016568;28;20396;-72
2023/01/24 11:48:21;;;;;;;9.20;3.72;;;;;;;;;;5014099;28;20035;-73
2023/01/24 11:51:02;;;;;;;10.15;3.55;;;;;;;;;;5024733;28;20080;-73
2023/01/24 11:53:31;;;;;;;13.52;3.97;;;;;;;;;;5025698;28;20036;-74
2023/01/24 11:56:00;;;;;;;9.32;4.03;;;;;;;;;;5026314;28;20491;-74
2023/01/24 11:58:34;;;;;;;12.07;3.83;;;;;;;;;;5019516;28;20424;-74
2023/01/24 12:01:09;;;;;;;9.48;3.67;;;;;;;;;;5011174;28;20050;-74
2023/01/24 12:03:44;;;;;;;8.32;3.65;;;;;;;;;;5025213;28;20033;-73
2023/01/24 12:06:19;;;;;;;6.55;3.25;;;;;;;;;;5025400;28;20021;-74
2023/01/24 12:08:56;;;;;;;9.57;4.15;;;;;;;;;;5024394;28;20384;-73
2023/01/24 12:11:30;;;;;;;8.38;3.20;;;;;;;;;;5016058;28;20141;-73
2023/01/24 12:14:13;;;;;;;9.50;3.78;;;;;;;;;;5024413;28;20587;-74
2023/01/24 12:16:42;;;;;;;8.25;4.35;;;;;;;;;;5029946;28;20117;-74
2023/01/24 12:19:22;;;;;;;9.00;4.30;;;;;;;;;;5019667;28;20354;-74
2023/01/24 12:21:49;;;;;;;8.75;3.30;;;;;;;;;;5017220;28;20111;-73
2023/01/24 12:24:19;;;;;;;10.32;3.92;;;;;;;;;;5048264;28;20384;-74
2023/01/24 12:26:49;;;;;;;8.90;4.32;;;;;;;;;;5048014;28;20029;-73
2023/01/24 12:29:18;;;;;;;13.27;3.45;;;;;;;;;;5048067;28;20068;-73
2023/01/24 12:31:47;;;;;;;9.93;3.60;;;;;;;;;;5026218;28;20067;-74
2023/01/24 12:34:36;;;;;;;9.73;3.47;;;;;;;;;;5028361;28;20509;-74
2023/01/24 12:37:11;;;;;;;11.82;3.75;;;;;;;;;;5026799;28;20077;-73
2023/01/24 12:39:42;;;;;;;10.75;3.75;;;;;;;;;;5028332;28;20028;-73
2023/01/24 12:42:17;;;;;;;10.63;3.47;;;;;;;;;;5017556;28;20026;-73
2023/01/24 12:44:49;;;;;;;12.52;4.15;;;;;;;;;;5027573;28;20029;-73
2023/01/24 12:47:33;;;;;;;9.55;3.65;;;;;;;;;;5027656;28;20427;-73
2023/01/24 12:50:08;;;;;;;11.48;4.22;;;;;;;;;;5027957;28;20099;-73
2023/01/24 12:52:45;;;;;;;9.05;3.97;;;;;;;;;;5015989;28;20026;-74
2023/01/24 12:55:24;;;;;;;8.77;3.25;;;;;;;;;;5027386;28;20029;-73
2023/01/24 12:57:52;;;;;;;10.32;4.45;;;;;;;;;;5027637;28;20076;-74
2023/01/24 13:00:19;;;;;;;8.63;3.63;;;;;;;;;;5027219;28;20686;-73
2023/01/24 13:02:45;;;;;;;11.65;3.70;;;;;;;;;;5021768;28;20120;-74
2023/01/24 13:05:30;;;;;;;9.77;3.60;;;;;;;;;;5020392;28;20064;-74
2023/01/24 13:07:56;;;;;;;9.13;3.80;;;;;;;;;;5027075;28;20089;-74
2023/01/24 13:10:25;;;;;;;9.80;3.90;;;;;;;;;;5027595;28;20087;-73
2023/01/24 13:12:52;;;;;;;7.05;3.15;;;;;;;;;;5024929;28;20030;-73
2023/01/24 13:15:26;;;;;;;7.78;3.38;;;;;;;;;;5014791;28;20029;-73
2023/01/24 13:18:01;;;;;;;8.38;3.38;;;;;;;;;;5027161;28;20501;-74
2023/01/24 13:20:27;;;;;;;7.20;3.50;;;;;;;;;;5026978;28;20335;-73
2023/01/24 13:23:12;;;;;;;9.52;3.90;;;;;;;;;;5027320;28;20027;-73
2023/01/24 13:25:47;;;;;;;9.60;3.42;;;;;;;;;;5017669;28;20036;-73
2023/01/24 13:28:36;;;;;;;7.22;3.40;;;;;;;;;;5027118;28;20025;-73
2023/01/24 13:31:13;;;;;;;8.27;3.88;;;;;;;;;;5027062;28;20036;-74
2023/01/24 13:34:05;;;;;;;12.88;3.60;;;;;;;;;;5027189;28;20026;-73
2023/01/24 13:36:35;;;;;;;9.07;4.22;;;;;;;;;;5021954;28;20029;-74
2023/01/24 13:39:01;;;;;;;10.23;3.65;;;;;;;;;;5025644;28;20095;-73
2023/01/24 13:41:27;;;;;;;9.05;3.90;;;;;;;;;;5027194;28;20057;-74
2023/01/24 13:43:58;;;;;;;9.23;3.72;;;;;;;;;;5026583;28;20029;-73
2023/01/24 13:46:47;;;;;;;15.95;3.70;;;;;;;;;;5013738;28;20041;-73
2023/01/24 13:49:28;;;;;;;9.10;3.72;;;;;;;;;;5009367;28;20187;-74
2023/01/24 13:51:54;;;;;;;8.07;3.08;;;;;;;;;;5022028;28;20087;-73
2023/01/24 13:54:39;;;;;;;8.32;3.40;;;;;;;;;;5019432;28;20033;-73
2023/01/24 13:57:14;;;;;;;9.20;3.17;;;;;;;;;;5026060;28;20022;-73
2023/01/24 13:59:41;;;;;;;12.63;4.00;;;;;;;;;;5026196;28;20060;-74
2023/01/24 14:02:26;;;;;;;7.63;3.65;;;;;;;;;;5026376;28;20029;-73
2023/01/24 14:04:52;;;;;;;10.73;3.72;;;;;;;;;;5022302;28;20068;-73
2023/01/24 14:07:28;;;;;;;10.70;3.50;;;;;;;;;;5022983;28;20026;-74
2023/01/24 14:10:02;;;;;;;7.10;3.42;;;;;;;;;;5026297;28;20033;-73
2023/01/24 14:12:29;;;;;;;7.25;3.53;;;;;;;;;;5026871;28;20029;-74
2023/01/24 14:14:58;;;;;;;7.50;3.80;;;;;;;;;;5031010;28;20032;-73
2023/01/24 14:17:25;;;;;;;9.10;3.70;;;;;;;;;;5024824;28;20029;-73
2023/01/24 14:19:52;;;;;;;9.20;3.78;;;;;;;;;;5020324;28;20394;-73
2023/01/24 14:22:20;;;;;;;11.23;3.35;;;;;;;;;;5014976;28;20508;-74
2023/01/24 14:25:04;;;;;;;11.02;4.30;;;;;;;;;;5025571;28;20029;-73
2023/01/24 14:27:35;;;;;;;6.72;3.25;;;;;;;;;;5026627;28;20024;-74
2023/01/24 14:30:10;;;;;;;11.25;4.15;;;;;;;;;;5016752;28;20512;-73
2023/01/24 14:32:39;;;;;;;7.78;3.33;;;;;;;;;;5026294;28;20036;-74
2023/01/24 14:35:12;;;;;;;7.20;3.47;;;;;;;;;;5025475;28;20397;-73
2023/01/24 14:37:38;;;;;;;8.18;3.42;;;;;;;;;;5026023;28;20035;-73
2023/01/24 14:40:11;;;;;;;8.52;3.33;;;;;;;;;;5021850;28;20029;-74
2023/01/24 14:42:37;;;;;;;7.65;3.45;;;;;;;;;;5016953;28;20052;-72
2023/01/24 14:45:03;;;;;;;6.63;3.25;;;;;;;;;;5014606;28;20466;-73
2023/01/24 14:47:30;;;;;;;7.90;3.42;;;;;;;;;;5025957;28;20079;-73
2023/01/24 14:50:02;;;;;;;7.20;3.58;;;;;;;;;;5025390;28;20055;-73
2023/01/24 14:52:35;;;;;;;5.03;2.75;;;;;;;;;;5023264;28;20573;-74
2023/01/24 14:55:08;;;;;;;5.15;2.72;;;;;;;;;;5015784;28;20025;-73
2023/01/24 14:57:33;;;;;;;7.75;3.22;;;;;;;;;;5025110;28;20116;-73
2023/01/24 14:59:59;;;;;;;6.50;3.17;;;;;;;;;;5025537;28;20045;-74
2023/01/24 15:02:25;;;;;;;5.72;3.03;;;;;;;;;;5018389;28;20097;-73
2023/01/24 15:04:54;;;;;;;8.85;3.22;;;;;;;;;;5028765;28;20025;-74
2023/01/24 15:07:23;;;;;;;5.07;3.08;;;;;;;;;;5040079;28;20025;-73
2023/01/24 15:09:49;;;;;;;8.00;4.03;;;;;;;;;;5025030;28;20022;-73
2023/01/24 15:12:35;;;;;;;10.60;3.63;;;;;;;;;;5020303;28;20033;-73
2023/01/24 15:15:03;;;;;;;6.97;3.20;;;;;;;;;;5028078;28;20054;-73
2023/01/24 15:17:30;;;;;;;5.18;3.00;;;;;;;;;;5010305;28;20059;-74
2023/01/24 15:19:59;;;;;;;7.60;3.45;;;;;;;;;;5020697;28;20033;-73
2023/01/24 15:22:26;;;;;;;5.97;3.03;;;;;;;;;;5025391;28;20497;-73
2023/01/24 15:24:56;;;;;;;9.27;3.40;;;;;;;;;;5024896;28;20489;-72
2023/01/24 15:27:29;;;;;;;10.07;3.50;;;;;;;;;;5017206;28;20611;-72